Time;durP1;ratioP1;P1;durP2;ratioP2;P2;SDS_P1;SDS_P2;PMS_P1;PMS_P2;Temp;Humidity;BMP_temperature;BMP_pressure;BME280_temperature;BME280_humidity;BME280_pressure;Samples;Min_cycle;Max_cycle;Signal;HPM_P1;HPM_P2
2021/03/22 00:01:54;;;;;;;28.65;6.82;;;;;;;4.77;100.00;102560.00;12970969;22;20094;-79
2021/03/22 00:06:54;;;;;;;23.92;7.03;;;;;;;4.64;100.00;102535.44;12943779;22;20125;-80
2021/03/22 00:11:55;;;;;;;41.25;9.75;;;;;;;4.74;100.00;102555.22;12971381;22;20518;-80
2021/03/22 00:16:55;;;;;;;29.92;7.85;;;;;;;4.26;100.00;102485.28;12970980;22;20011;-80
2021/03/22 00:21:56;;;;;;;38.33;8.45;;;;;;;4.73;100.00;102569.69;12971662;22;20150;-79
2021/03/22 00:26:56;;;;;;;31.65;9.27;;;;;;;3.60;100.00;102377.53;12970055;22;20591;-81
2021/03/22 00:31:57;;;;;;;26.38;8.52;;;;;;;4.11;100.00;102457.53;12944412;22;20014;-80
2021/03/22 00:36:57;;;;;;;31.65;9.05;;;;;;;4.64;100.00;102514.00;12964865;22;20094;-80
2021/03/22 00:41:58;;;;;;;26.60;8.07;;;;;;;4.31;100.00;102450.50;12968895;22;20089;-80
2021/03/22 00:46:58;;;;;;;40.05;9.70;;;;;;;4.74;100.00;102512.34;12970620;22;20016;-79
2021/03/22 00:52:00;;;;;;;41.00;10.68;;;;;;;5.07;100.00;102543.72;12968744;22;20116;-79
2021/03/22 00:57:01;;;;;;;35.22;10.45;;;;;;;5.04;100.00;102512.13;12940766;22;20075;-80
2021/03/22 01:02:03;;;;;;;37.05;10.05;;;;;;;4.75;100.00;102465.72;12918426;22;20027;-79
2021/03/22 01:07:04;;;;;;;44.53;10.90;;;;;;;5.25;100.00;102533.41;12970740;22;20030;-79
2021/03/22 01:12:05;;;;;;;38.10;11.07;;;;;;;5.32;100.00;102528.53;12916876;22;20000;-79
2021/03/22 01:17:06;;;;;;;32.95;10.90;;;;;;;4.03;100.00;102318.97;12943567;22;20601;-79
2021/03/22 01:22:06;;;;;;;45.15;11.90;;;;;;;5.25;100.00;102511.97;12943043;22;20015;-79
2021/03/22 01:27:08;;;;;;;35.42;10.93;;;;;;;4.77;100.00;102437.56;12967951;22;20160;-79
2021/03/22 01:32:11;;;;;;;43.72;11.02;;;;;;;5.00;100.00;102468.19;12941968;22;20008;-80
2021/03/22 01:37:11;;;;;;;40.83;11.95;;;;;;;4.88;100.00;102438.28;12941879;22;20031;-80
2021/03/22 01:42:19;;;;;;;36.90;11.40;;;;;;;5.03;100.00;102456.94;12968855;22;20039;-80
2021/03/22 01:47:26;;;;;;;44.42;11.48;;;;;;;5.31;100.00;102489.38;12970147;22;20026;-80
2021/03/22 01:52:28;;;;;;;41.33;10.43;;;;;;;4.94;100.00;102426.47;12946547;22;19999;-80
2021/03/22 01:57:30;;;;;;;33.22;11.90;;;;;;;5.45;100.00;102501.03;12945243;22;20007;-79
2021/03/22 02:02:34;;;;;;;36.55;11.23;;;;;;;5.03;100.00;102419.41;12945768;22;20088;-80
2021/03/22 02:07:35;;;;;;;33.58;10.85;;;;;;;5.24;100.00;102446.00;12946912;22;20016;-81
2021/03/22 02:12:35;;;;;;;37.38;9.93;;;;;;;5.32;100.00;102458.81;12945534;22;20004;-81
2021/03/22 02:17:44;;;;;;;26.85;9.82;;;;;;;5.22;100.00;102427.53;12972322;22;20003;-81
2021/03/22 02:23:10;;;;;;;38.15;9.23;;;;;;;5.59;100.00;102485.06;12919858;22;20008;-81
2021/03/22 02:28:10;;;;;;;22.70;8.75;;;;;;;5.67;100.00;102491.72;12972417;22;20007;-81
2021/03/22 02:33:38;;;;;;;31.63;8.75;;;;;;;5.63;100.00;102475.38;12972638;22;20011;-81
2021/03/22 02:38:44;;;;;;;25.33;9.40;;;;;;;5.51;100.00;102457.00;12972076;22;20060;-78
2021/03/22 02:44:05;;;;;;;28.77;9.57;;;;;;;5.47;100.00;102466.69;12946001;22;20008;-81
2021/03/22 02:49:15;;;;;;;25.35;8.57;;;;;;;5.42;100.00;102447.97;12971701;22;20019;-80
2021/03/22 02:54:27;;;;;;;26.35;8.75;;;;;;;5.70;100.00;102475.03;12944699;22;20048;-81
2021/03/22 02:59:31;;;;;;;30.17;8.63;;;;;;;5.61;100.00;102455.28;12943837;22;20031;-80
2021/03/22 03:04:35;;;;;;;21.40;7.90;;;;;;;5.72;100.00;102494.34;12946031;22;20004;-80
2021/03/22 03:09:38;;;;;;;19.27;7.60;;;;;;;5.47;100.00;102433.69;12945898;22;19999;-80
2021/03/22 03:14:41;;;;;;;24.02;7.38;;;;;;;5.73;100.00;102479.81;12944865;22;20090;-79
2021/03/22 03:19:41;;;;;;;;;;;;;;;5.75;100.00;102483.03;12945583;22;20071;-80
2021/03/22 03:24:42;;;;;;;18.40;6.22;;;;;;;5.22;100.00;102389.19;12972658;22;19951;-80
2021/03/22 03:29:43;;;;;;;19.42;6.32;;;;;;;5.71;100.00;102476.63;12994604;22;20007;-80
2021/03/22 03:34:44;;;;;;;24.05;6.57;;;;;;;5.25;100.00;102410.06;12945128;22;20015;-80
2021/03/22 03:39:44;;;;;;;21.73;7.00;;;;;;;5.04;100.00;102351.31;12945184;22;20198;-80
2021/03/22 03:44:45;;;;;;;22.33;6.90;;;;;;;5.40;99.43;102417.94;12971298;22;20097;-80
2021/03/22 03:49:45;;;;;;;21.67;6.68;;;;;;;5.33;99.28;102385.31;12971254;22;20062;-80
2021/03/22 03:54:46;;;;;;;23.50;6.93;;;;;;;5.35;99.17;102398.44;12971705;22;20162;-79
2021/03/22 03:59:46;;;;;;;21.00;6.93;;;;;;;5.79;99.48;102478.69;12943444;22;20474;-80
2021/03/22 04:04:46;;;;;;;29.33;7.00;;;;;;;5.30;99.72;102401.97;12971887;22;20038;-80
2021/03/22 04:09:48;;;;;;;22.63;6.40;;;;;;;5.72;99.99;102467.50;12945917;22;20046;-80
2021/03/22 04:14:49;;;;;;;24.87;7.20;;;;;;;5.78;99.86;102487.81;12942940;22;20019;-80
2021/03/22 04:19:49;;;;;;;25.00;6.97;;;;;;;5.46;100.00;102424.88;12970986;22;20580;-80
2021/03/22 04:24:49;;;;;;;26.13;6.43;;;;;;;5.83;98.36;102469.00;12943376;22;20015;-80
2021/03/22 04:29:50;;;;;;;32.70;6.82;;;;;;;5.90;97.45;102496.28;12942951;22;20035;-80
2021/03/22 04:34:50;;;;;;;16.58;5.93;;;;;;;5.82;96.20;102467.38;12970042;22;20037;-80
2021/03/22 04:39:51;;;;;;;19.30;5.72;;;;;;;5.57;96.60;102443.50;12919454;22;20008;-79
2021/03/22 04:44:51;;;;;;;18.92;5.05;;;;;;;5.90;96.14;102495.44;12916852;22;20012;-79
2021/03/22 04:49:52;;;;;;;24.58;6.75;;;;;;;5.69;94.74;102457.31;12970944;22;20067;-79
2021/03/22 04:54:52;;;;;;;20.65;6.28;;;;;;;5.93;93.52;102495.69;12943476;22;20019;-79
2021/03/22 04:59:53;;;;;;;22.02;6.32;;;;;;;5.89;92.61;102478.56;12969316;22;20007;-79
2021/03/22 05:04:53;;;;;;;17.33;7.47;;;;;;;5.81;92.53;102460.41;12969680;22;20115;-79
2021/03/22 05:09:54;;;;;;;20.83;6.30;;;;;;;5.92;92.47;102483.34;12942782;22;20004;-79
2021/03/22 05:14:54;;;;;;;14.35;5.32;;;;;;;5.64;91.27;102427.88;12968969;22;20111;-79
2021/03/22 05:19:55;;;;;;;15.73;5.20;;;;;;;5.41;91.24;102403.47;12940926;22;20008;-79
2021/03/22 05:24:55;;;;;;;20.70;6.35;;;;;;;5.71;91.53;102468.56;12944362;22;20012;-83
2021/03/22 05:29:56;;;;;;;21.23;7.00;;;;;;;5.71;90.53;102465.88;12975372;22;20044;-78
2021/03/22 05:34:56;;;;;;;20.02;6.20;;;;;;;5.88;90.43;102503.03;12973030;22;20008;-81
2021/03/22 05:39:57;;;;;;;19.05;6.40;;;;;;;5.98;89.50;102502.13;12977038;22;20012;-78
2021/03/22 05:45:02;;;;;;;16.67;5.97;;;;;;;5.57;89.98;102422.06;12948951;22;20026;-76
2021/03/22 05:50:23;;;;;;;21.75;8.32;;;;;;;5.96;89.88;102504.28;12979160;22;20085;-81
2021/03/22 05:55:36;;;;;;;23.98;5.97;;;;;;;6.00;90.29;102537.53;12928659;22;20011;-76
2021/03/22 06:00:37;;;;;;;15.23;6.40;;;;;;;5.99;91.03;102519.81;12949215;22;20008;-83
2021/03/22 06:05:43;;;;;;;16.15;6.38;;;;;;;6.02;90.59;102524.59;12974352;22;20415;-80
2021/03/22 06:10:50;;;;;;;20.42;7.05;;;;;;;6.02;90.07;102529.97;12973266;22;20058;-85
2021/03/22 06:15:57;;;;;;;16.48;7.00;;;;;;;6.00;89.42;102516.06;12948058;22;20015;-84
2021/03/22 06:21:02;;;;;;;16.77;6.80;;;;;;;5.79;89.49;102484.06;12952319;22;20031;-84
2021/03/22 06:26:04;;;;;;;19.30;6.47;;;;;;;6.06;89.33;102520.28;12939770;22;20346;-86
2021/03/22 06:31:10;;;;;;;20.80;7.03;;;;;;;6.12;89.31;102529.88;12954612;22;20378;-80
2021/03/22 06:36:14;;;;;;;24.08;7.20;;;;;;;6.12;89.54;102535.25;12951207;22;20008;-84
2021/03/22 06:41:38;;;;;;;20.73;6.93;;;;;;;6.20;89.72;102537.28;12976738;22;20053;-84
2021/03/22 06:46:56;;;;;;;19.90;5.93;;;;;;;6.25;88.76;102523.78;12951827;22;20061;-84
2021/03/22 06:51:57;;;;;;;18.48;6.70;;;;;;;6.07;88.72;102473.56;12977515;22;20083;-84
2021/03/22 06:57:05;;;;;;;21.63;6.07;;;;;;;6.69;86.21;102544.16;12974045;22;20046;-81
2021/03/22 07:02:21;;;;;;;18.80;6.28;;;;;;;6.87;83.88;102549.84;12975899;22;20419;-82
2021/03/22 07:07:24;;;;;;;16.10;5.57;;;;;;;6.69;81.98;102500.38;12976137;22;20003;-82
2021/03/22 07:12:35;;;;;;;17.02;6.38;;;;;;;6.96;81.89;102556.13;12975602;22;20000;-83
2021/03/22 07:17:35;;;;;;;13.70;5.70;;;;;;;6.60;83.59;102524.41;12976284;22;20014;-83
2021/03/22 07:22:36;;;;;;;16.77;5.93;;;;;;;6.43;84.85;102497.25;12976841;22;20012;-82
2021/03/22 07:27:51;;;;;;;17.63;6.75;;;;;;;6.88;85.46;102562.19;12944047;22;20011;-83
2021/03/22 07:32:59;;;;;;;14.35;6.32;;;;;;;6.71;86.53;102576.91;12948631;22;20065;-83
2021/03/22 07:38:00;;;;;;;17.55;5.75;;;;;;;6.55;87.07;102554.03;12921001;22;20007;-83
2021/03/22 07:43:14;;;;;;;17.55;6.03;;;;;;;6.04;86.43;102458.81;12975395;22;20304;-83
2021/03/22 07:48:38;;;;;;;16.02;6.80;;;;;;;6.37;85.68;102501.09;12949105;22;20094;-81
2021/03/22 07:53:47;;;;;;;13.35;5.40;;;;;;;6.94;84.65;102569.09;12973271;22;20430;-80
2021/03/22 07:59:25;;;;;;;13.25;4.93;;;;;;;7.32;82.56;102550.19;12974047;22;20330;-81
2021/03/22 08:04:42;;;;;;;10.80;3.80;;;;;;;7.55;80.09;102557.31;12974261;22;20075;-82
2021/03/22 08:09:52;;;;;;;8.10;3.03;;;;;;;7.35;79.86;102501.19;12947482;22;20000;-80
2021/03/22 08:15:00;;;;;;;13.95;3.45;;;;;;;7.60;77.90;102508.78;12944351;22;20015;-81
2021/03/22 08:20:29;;;;;;;17.50;4.65;;;;;;;8.25;78.30;102555.44;12974042;22;20870;-82
2021/03/22 08:25:39;;;;;;;15.88;5.07;;;;;;;8.59;77.46;102565.03;12933143;22;20062;-81
2021/03/22 08:30:45;;;;;;;17.23;5.35;;;;;;;8.46;78.09;102551.25;12973726;22;20031;-81
2021/03/22 08:35:52;;;;;;;17.48;4.60;;;;;;;9.08;76.13;102566.06;12947483;22;20027;-82
2021/03/22 08:40:56;;;;;;;14.63;4.07;;;;;;;9.10;73.01;102536.84;12974793;22;20031;-83
2021/03/22 08:46:07;;;;;;;18.35;5.32;;;;;;;9.40;72.25;102561.50;12973104;22;20008;-83
2021/03/22 08:51:25;;;;;;;11.50;4.05;;;;;;;9.48;71.54;102547.28;12949152;22;20115;-81
2021/03/22 08:56:31;;;;;;;10.75;3.75;;;;;;;9.71;70.88;102578.53;12947065;22;20019;-83
2021/03/22 09:01:34;;;;;;;9.52;3.63;;;;;;;9.38;71.10;102539.41;12921281;22;20015;-81
2021/03/22 09:06:35;;;;;;;11.45;2.78;;;;;;;9.07;70.54;102515.91;12975456;22;20004;-80
2021/03/22 09:11:44;;;;;;;6.90;2.13;;;;;;;8.99;71.24;102562.50;12973469;22;20427;-82
2021/03/22 09:16:48;;;;;;;8.93;1.55;;;;;;;8.70;69.37;102507.06;12987481;22;20026;-82
2021/03/22 09:21:54;;;;;;;9.00;1.52;;;;;;;8.97;70.59;102565.50;12964834;22;20276;-83
2021/03/22 09:26:57;;;;;;;7.93;1.77;;;;;;;8.59;69.47;102516.50;12973481;22;20451;-81
2021/03/22 09:32:00;;;;;;;6.07;1.50;;;;;;;8.58;67.11;102509.50;12943520;22;20015;-80
2021/03/22 09:37:39;;;;;;;5.22;1.35;;;;;;;8.51;64.46;102563.03;12948934;22;20027;-81
2021/03/22 09:42:39;;;;;;;2.85;1.13;;;;;;;8.31;64.80;102527.31;12944918;22;20012;-84
2021/03/22 09:47:40;;;;;;;2.53;1.30;;;;;;;8.69;64.80;102580.97;12974718;22;20020;-81
2021/03/22 09:53:01;;;;;;;4.40;1.30;;;;;;;8.88;63.37;102578.91;12945938;22;20070;-81
2021/03/22 09:58:38;;;;;;;4.60;1.23;;;;;;;9.46;60.50;102598.06;12972639;22;20204;-81
2021/03/22 10:03:54;;;;;;;4.88;1.27;;;;;;;9.48;62.46;102579.66;12741795;22;20509;-83
2021/03/22 10:08:56;;;;;;;5.00;1.30;;;;;;;9.09;63.44;102551.47;12922606;22;20032;-83
2021/03/22 10:13:59;;;;;;;3.90;0.93;;;;;;;9.45;60.56;102558.66;12948841;22;20074;-83
2021/03/22 10:19:12;;;;;;;4.43;1.13;;;;;;;9.68;60.26;102600.72;12978575;22;20065;-82
2021/03/22 10:24:35;;;;;;;1.73;0.88;;;;;;;9.52;61.25;102618.41;12978766;22;20003;-82
2021/03/22 10:29:36;;;;;;;2.38;1.10;;;;;;;9.12;59.87;102540.06;12924185;22;20008;-82
2021/03/22 10:34:47;;;;;;;5.43;1.20;;;;;;;10.04;58.29;102629.53;12949368;22;20035;-80
2021/03/22 10:39:48;;;;;;;4.55;1.00;;;;;;;9.88;58.40;102620.22;12951354;22;20011;-81
2021/03/22 10:44:49;;;;;;;3.60;1.65;;;;;;;9.74;59.38;102629.22;12949210;22;20031;-79
2021/03/22 10:49:50;;;;;;;6.28;1.88;;;;;;;9.34;60.47;102578.94;12949476;22;20609;-80
2021/03/22 10:54:51;;;;;;;5.03;1.20;;;;;;;9.60;62.06;102625.78;12948555;22;20014;-79
2021/03/22 10:59:53;;;;;;;3.05;1.10;;;;;;;9.52;61.92;102623.81;12950447;22;20008;-80
2021/03/22 11:04:55;;;;;;;1.60;0.70;;;;;;;9.08;61.88;102571.47;12949743;22;20615;-80
2021/03/22 11:10:20;;;;;;;3.05;0.65;;;;;;;9.18;60.40;102565.81;12948671;22;20039;-80
2021/03/22 11:15:38;;;;;;;4.05;0.90;;;;;;;9.30;60.91;102578.75;12954454;22;20012;-82
2021/03/22 11:20:46;;;;;;;2.35;0.80;;;;;;;8.60;60.38;102485.75;12950722;22;20011;-81
2021/03/22 11:25:47;;;;;;;3.72;0.93;;;;;;;9.11;60.91;102565.44;12923906;22;20007;-82
2021/03/22 11:30:53;;;;;;;2.15;0.55;;;;;;;9.47;59.79;102629.34;12950496;22;20012;-81
2021/03/22 11:36:15;;;;;;;3.60;0.80;;;;;;;9.08;60.64;102587.66;12952022;22;20082;-82
2021/03/22 11:41:30;;;;;;;3.97;0.93;;;;;;;9.46;60.38;102638.56;12975088;22;20328;-81
2021/03/22 11:46:31;;;;;;;2.63;0.90;;;;;;;9.35;60.40;102629.09;12977195;22;20015;-81
2021/03/22 11:51:32;;;;;;;4.88;1.05;;;;;;;9.47;60.96;102632.84;12948667;22;20008;-80
2021/03/22 11:56:37;;;;;;;1.98;0.90;;;;;;;9.52;60.39;102634.63;12973604;22;20357;-80
2021/03/22 12:01:38;;;;;;;7.88;1.85;;;;;;;9.14;62.35;102591.81;12948223;22;20057;-81
2021/03/22 12:07:03;;;;;;;3.30;1.20;;;;;;;8.89;63.27;102564.34;12976523;22;20007;-81
2021/03/22 12:12:11;;;;;;;3.03;0.90;;;;;;;9.55;63.34;102634.03;12980023;22;19996;-82
2021/03/22 12:17:29;;;;;;;3.55;1.25;;;;;;;9.53;61.92;102614.63;12968173;22;20014;-82
2021/03/22 12:22:30;;;;;;;1.92;1.00;;;;;;;8.93;61.11;102509.78;12923341;22;20004;-82
2021/03/22 12:27:30;;;;;;;3.30;1.25;;;;;;;9.74;61.64;102621.09;12946942;22;20050;-81
2021/03/22 12:32:31;;;;;;;4.28;1.00;;;;;;;9.91;61.31;102625.00;12972907;22;20004;-81
2021/03/22 12:37:34;;;;;;;1.98;0.75;;;;;;;9.21;59.00;102535.50;12976408;22;20012;-81
2021/03/22 12:42:34;;;;;;;3.03;0.65;;;;;;;10.07;58.94;102623.47;12947684;22;20015;-81
2021/03/22 12:47:35;;;;;;;4.85;0.93;;;;;;;10.12;57.76;102599.03;12946058;22;20012;-80
2021/03/22 12:52:35;;;;;;;4.05;0.70;;;;;;;9.69;57.60;102552.94;12947887;22;20008;-80
2021/03/22 12:57:36;;;;;;;5.78;0.80;;;;;;;9.82;56.60;102556.63;12975394;22;20012;-81
2021/03/22 13:02:36;;;;;;;6.53;1.30;;;;;;;9.98;56.01;102576.72;12922886;22;20032;-84
2021/03/22 13:07:38;;;;;;;;;;;;;;;10.29;56.24;102613.72;12974876;22;20003;-86
2021/03/22 13:12:39;;;;;;;5.07;1.27;;;;;;;10.51;56.74;102594.72;12975024;22;19922;-86
2021/03/22 13:17:42;;;;;;;6.03;1.10;;;;;;;10.34;57.42;102583.84;12973416;22;20318;-87
2021/03/22 13:22:42;;;;;;;4.80;1.40;;;;;;;10.22;57.02;102602.56;12922690;22;20008;-87
2021/03/22 13:27:44;;;;;;;5.95;1.08;;;;;;;9.49;59.02;102505.66;12946967;22;20019;-85
2021/03/22 13:32:44;;;;;;;4.43;1.00;;;;;;;10.11;58.90;102608.25;12973568;22;20008;-84
2021/03/22 13:37:45;;;;;;;7.20;1.08;;;;;;;10.27;59.40;102616.69;12972348;22;20373;-83
2021/03/22 13:42:46;;;;;;;4.68;0.95;;;;;;;10.09;59.21;102588.06;12971742;22;20012;-86
2021/03/22 13:47:46;;;;;;;3.80;1.10;;;;;;;9.82;58.44;102589.84;12925633;22;20092;-85
2021/03/22 13:52:47;;;;;;;7.15;1.80;;;;;;;10.01;58.37;102522.06;12979452;22;20334;-85
2021/03/22 13:57:48;;;;;;;3.45;1.08;;;;;;;10.73;55.84;102552.41;12950677;22;20073;-86
2021/03/22 14:02:48;;;;;;;4.45;0.90;;;;;;;10.76;54.37;102520.09;12972320;22;20008;-85
2021/03/22 14:07:49;;;;;;;3.67;1.50;;;;;;;11.53;53.19;102569.03;12974870;22;20007;-84
2021/03/22 14:12:52;;;;;;;2.42;0.88;;;;;;;11.66;50.16;102523.09;12977560;22;20015;-85
2021/03/22 14:17:52;;;;;;;;;;;;;;;11.63;50.55;102551.63;12975106;22;20011;-83
2021/03/22 14:22:53;;;;;;;2.80;1.40;;;;;;;11.54;50.19;102542.72;12947362;22;20408;-81
2021/03/22 14:27:54;;;;;;;7.20;2.10;;;;;;;11.50;50.57;102547.19;12921020;22;20336;-82
2021/03/22 14:32:55;;;;;;;7.72;2.25;;;;;;;10.97;50.48;102536.47;12971945;22;19999;-83
2021/03/22 14:37:55;;;;;;;5.38;1.58;;;;;;;11.38;51.29;102545.97;12947156;22;20011;-83
2021/03/22 14:42:56;;;;;;;6.40;1.85;;;;;;;11.37;51.83;102555.19;12921727;22;20087;-84
2021/03/22 14:47:57;;;;;;;5.75;2.00;;;;;;;11.25;52.33;102549.66;12971359;22;20551;-84
2021/03/22 14:52:58;;;;;;;5.60;2.00;;;;;;;10.25;52.88;102455.97;12945282;22;20343;-85
2021/03/22 14:57:59;;;;;;;6.85;2.00;;;;;;;11.24;52.44;102539.97;12947776;22;20110;-85
2021/03/22 15:03:01;;;;;;;9.32;2.70;;;;;;;10.48;52.04;102433.09;12974990;22;20011;-83
2021/03/22 15:08:03;;;;;;;7.85;2.63;;;;;;;10.75;52.67;102502.28;12973541;22;20347;-82
2021/03/22 15:13:03;;;;;;;7.00;2.80;;;;;;;10.85;52.28;102484.94;12975472;22;20087;-86
2021/03/22 15:18:18;;;;;;;5.65;2.70;;;;;;;11.02;53.23;102494.13;12948242;22;20328;-81
2021/03/22 15:23:25;;;;;;;7.50;2.80;;;;;;;11.45;52.27;102528.41;12973844;22;20133;-80
2021/03/22 15:28:28;;;;;;;7.05;3.03;;;;;;;10.87;51.13;102428.59;12972118;22;20624;-77
2021/03/22 15:33:35;;;;;;;6.03;2.88;;;;;;;11.05;52.21;102455.59;12921181;22;20434;-77
2021/03/22 15:38:35;;;;;;;6.93;2.75;;;;;;;11.13;52.96;102473.75;12944807;22;20026;-81
2021/03/22 15:43:37;;;;;;;9.82;3.22;;;;;;;11.50;53.18;102520.94;12921086;22;20054;-80
2021/03/22 15:48:39;;;;;;;8.80;3.38;;;;;;;10.98;53.11;102478.56;12946720;22;20363;-79
2021/03/22 15:53:40;;;;;;;8.03;3.30;;;;;;;10.62;53.94;102429.44;12946630;22;20415;-81
2021/03/22 15:58:41;;;;;;;6.32;3.08;;;;;;;11.40;53.51;102516.63;12945788;22;20234;-80
2021/03/22 16:03:44;;;;;;;5.28;2.53;;;;;;;11.20;53.70;102522.75;12920453;22;20724;-77
2021/03/22 16:08:45;;;;;;;7.53;3.83;;;;;;;11.07;54.10;102510.19;12923543;22;20007;-81
2021/03/22 16:13:45;;;;;;;5.60;1.92;;;;;;;10.80;55.37;102498.63;12972145;22;20430;-78
2021/03/22 16:18:46;;;;;;;6.43;2.08;;;;;;;10.57;57.50;102525.81;12946158;22;20378;-78
2021/03/22 16:23:46;;;;;;;10.82;3.55;;;;;;;10.14;58.95;102472.50;12946366;22;20011;-81
2021/03/22 16:28:47;;;;;;;6.65;1.92;;;;;;;10.21;58.64;102530.69;12971394;22;20018;-78
2021/03/22 16:33:48;;;;;;;5.22;1.63;;;;;;;9.26;61.39;102497.59;12972408;22;20036;-77
2021/03/22 16:38:48;;;;;;;7.03;2.33;;;;;;;9.16;62.02;102473.59;12973474;22;20003;-77
2021/03/22 16:43:49;;;;;;;7.22;2.72;;;;;;;9.30;62.30;102477.00;12946648;22;20011;-78
2021/03/22 16:48:50;;;;;;;8.13;3.10;;;;;;;9.13;62.95;102466.13;12973072;22;20486;-86
2021/03/22 16:53:52;;;;;;;9.30;3.13;;;;;;;9.40;64.29;102511.00;12946397;22;20039;-86
2021/03/22 16:58:53;;;;;;;9.17;3.83;;;;;;;9.22;64.63;102469.66;12972843;22;20008;-80
2021/03/22 17:03:53;;;;;;;10.48;3.40;;;;;;;9.61;64.90;102535.56;12943763;22;20008;-80
2021/03/22 17:08:54;;;;;;;12.60;4.28;;;;;;;9.55;65.98;102526.03;12944617;22;20015;-82
2021/03/22 17:13:54;;;;;;;9.98;4.30;;;;;;;9.26;67.14;102476.00;12971312;22;20016;-80
2021/03/22 17:18:55;;;;;;;10.82;4.22;;;;;;;9.09;68.12;102486.72;12973448;22;20010;-85
2021/03/22 17:23:56;;;;;;;24.55;6.65;;;;;;;9.00;68.33;102493.97;12976402;22;20008;-79
2021/03/22 17:28:59;;;;;;;20.73;4.38;;;;;;;9.17;68.09;102509.44;12976499;22;20435;-84
2021/03/22 17:33:59;;;;;;;8.43;3.22;;;;;;;9.26;68.06;102535.38;12923937;22;20478;-80
2021/03/22 17:39:00;;;;;;;12.85;4.00;;;;;;;9.19;67.90;102513.44;12976602;22;20035;-78
2021/03/22 17:44:01;;;;;;;12.52;3.65;;;;;;;9.26;68.07;102539.97;12897923;22;20422;-81
2021/03/22 17:49:01;;;;;;;14.18;4.00;;;;;;;9.15;68.40;102517.88;12975950;22;20020;-83
2021/03/22 17:54:02;;;;;;;9.40;3.92;;;;;;;8.81;68.81;102486.84;12948447;22;20015;-84
2021/03/22 17:59:02;;;;;;;14.30;4.43;;;;;;;9.06;69.08;102541.31;12977980;22;20012;-84
2021/03/22 18:04:03;;;;;;;13.38;4.43;;;;;;;8.99;69.37;102541.72;12949073;22;20003;-82
2021/03/22 18:09:04;;;;;;;12.30;5.03;;;;;;;8.68;69.35;102536.25;12978459;22;20423;-82
2021/03/22 18:14:05;;;;;;;10.82;4.38;;;;;;;8.37;69.56;102493.78;12979560;22;20011;-82
2021/03/22 18:19:05;;;;;;;14.73;4.72;;;;;;;8.79;70.22;102569.94;12981969;22;20012;-87
2021/03/22 18:24:06;;;;;;;15.38;4.55;;;;;;;7.70;70.48;102420.88;12973793;22;20050;-91
2021/03/22 18:29:07;;;;;;;20.42;4.82;;;;;;;8.65;70.93;102569.19;12923755;22;20046;-85
2021/03/22 18:34:08;;;;;;;20.15;5.60;;;;;;;8.38;72.16;102576.19;12946413;22;20027;-83
2021/03/22 18:39:08;;;;;;;13.20;4.60;;;;;;;8.16;73.21;102570.72;12949696;22;20118;-81
2021/03/22 18:44:09;;;;;;;15.00;4.85;;;;;;;8.02;73.69;102563.47;12940909;22;20091;-82
2021/03/22 18:49:10;;;;;;;18.63;5.38;;;;;;;7.97;74.50;102582.41;12917792;22;20026;-83
2021/03/22 18:54:11;;;;;;;12.88;5.13;;;;;;;7.53;75.35;102524.53;12952527;22;20015;-83
2021/03/22 18:59:12;;;;;;;16.85;5.97;;;;;;;7.29;75.65;102505.03;12978182;22;20035;-82
2021/03/22 19:04:14;;;;;;;16.05;5.60;;;;;;;7.67;76.12;102564.13;12923814;22;20085;-82
2021/03/22 19:09:14;;;;;;;19.02;5.68;;;;;;;7.32;76.35;102517.91;12973004;22;20381;-85
2021/03/22 19:14:14;;;;;;;19.58;6.43;;;;;;;7.30;76.79;102523.59;12918784;22;20012;-82
2021/03/22 19:19:15;;;;;;;21.15;6.18;;;;;;;7.66;76.97;102586.75;12897595;22;20005;-81
2021/03/22 19:24:16;;;;;;;17.15;6.40;;;;;;;7.30;77.56;102530.84;12946563;22;20058;-82
2021/03/22 19:29:17;;;;;;;15.00;7.70;;;;;;;7.78;78.18;102598.66;12971316;22;20039;-80
2021/03/22 19:34:18;;;;;;;18.33;6.43;;;;;;;7.69;78.40;102583.44;12921242;22;20027;-79
2021/03/22 19:39:19;;;;;;;17.38;6.47;;;;;;;7.86;79.55;102607.94;12892734;22;20011;-82
2021/03/22 19:44:21;;;;;;;24.58;6.05;;;;;;;7.76;79.40;102584.69;12973357;22;20043;-80
2021/03/22 19:49:22;;;;;;;19.50;7.45;;;;;;;7.58;79.10;102558.63;12948520;22;20031;-83
2021/03/22 19:54:22;;;;;;;19.90;7.13;;;;;;;7.50;79.15;102538.59;12947724;22;20057;-80
2021/03/22 19:59:23;;;;;;;22.02;7.03;;;;;;;7.83;79.04;102581.56;12975251;22;20022;-84
2021/03/22 20:04:23;;;;;;;20.52;7.18;;;;;;;7.48;79.44;102521.94;12975122;22;20081;-79
2021/03/22 20:09:25;;;;;;;17.73;6.93;;;;;;;7.95;79.63;102600.75;12947883;22;20004;-81
2021/03/22 20:14:25;;;;;;;16.33;6.38;;;;;;;7.84;80.04;102583.19;12922476;22;20004;-82
2021/03/22 20:19:27;;;;;;;20.33;6.30;;;;;;;7.75;80.63;102584.97;12923287;22;20012;-81
2021/03/22 20:24:27;;;;;;;20.65;6.05;;;;;;;7.65;81.07;102587.84;12922529;22;20011;-82
2021/03/22 20:29:28;;;;;;;16.30;5.78;;;;;;;6.87;81.65;102490.69;12946713;22;20014;-80
2021/03/22 20:34:28;;;;;;;13.15;6.18;;;;;;;7.29;82.38;102583.03;12947305;22;20033;-83
2021/03/22 20:39:29;;;;;;;18.88;6.07;;;;;;;7.16;82.47;102585.41;12945642;22;20098;-80
2021/03/22 20:44:29;;;;;;;17.75;6.22;;;;;;;6.47;82.58;102476.78;12895490;22;20454;-80
2021/03/22 20:49:30;;;;;;;15.55;6.28;;;;;;;6.77;82.90;102556.97;12919645;22;20078;-81
2021/03/22 20:54:30;;;;;;;16.02;6.38;;;;;;;6.84;83.79;102582.66;12972859;22;20047;-82
2021/03/22 20:59:31;;;;;;;14.05;6.22;;;;;;;6.41;84.12;102545.88;12970712;22;20298;-81
2021/03/22 21:04:32;;;;;;;16.13;6.88;;;;;;;6.59;84.21;102576.56;12973073;22;20058;-83
2021/03/22 21:09:32;;;;;;;20.10;7.72;;;;;;;6.47;84.70;102578.88;12896533;22;20007;-80
2021/03/22 21:14:33;;;;;;;18.60;7.47;;;;;;;6.21;85.41;102555.00;12912187;22;20023;-82
2021/03/22 21:19:33;;;;;;;18.13;8.32;;;;;;;5.49;85.50;102463.72;12975527;22;20018;-82
2021/03/22 21:24:34;;;;;;;19.73;7.68;;;;;;;5.99;85.95;102557.41;12946177;22;20004;-83
2021/03/22 21:29:34;;;;;;;18.20;7.63;;;;;;;6.07;86.10;102570.22;12946446;22;20020;-82
2021/03/22 21:34:35;;;;;;;24.75;9.80;;;;;;;5.70;86.31;102539.44;12975456;22;20042;-82
2021/03/22 21:39:36;;;;;;;20.15;8.85;;;;;;;5.73;86.34;102544.22;12971989;22;20085;-79
2021/03/22 21:44:36;;;;;;;19.15;7.60;;;;;;;5.88;87.62;102575.50;12946789;22;20039;-78
2021/03/22 21:49:37;;;;;;;21.67;8.20;;;;;;;5.80;88.49;102574.19;12972150;22;20073;-78
2021/03/22 21:54:37;;;;;;;26.70;8.98;;;;;;;5.72;88.90;102569.47;12946199;22;20431;-81
2021/03/22 21:59:38;;;;;;;18.38;8.02;;;;;;;5.58;89.44;102552.44;12947620;22;20020;-80
2021/03/22 22:04:38;;;;;;;18.55;7.93;;;;;;;5.69;89.97;102596.84;12949316;22;20014;-78
2021/03/22 22:09:39;;;;;;;20.48;7.65;;;;;;;5.65;90.67;102569.00;12951542;22;20011;-79
2021/03/22 22:14:39;;;;;;;22.85;8.18;;;;;;;4.23;90.74;102353.63;12952048;22;20110;-78
2021/03/22 22:19:40;;;;;;;23.60;8.48;;;;;;;5.40;91.93;102546.66;12979845;22;20004;-79
2021/03/22 22:24:42;;;;;;;22.77;8.05;;;;;;;5.54;92.49;102562.13;12979565;22;20035;-79
2021/03/22 22:29:42;;;;;;;30.15;11.70;;;;;;;5.20;92.52;102498.59;12979379;22;20129;-79
2021/03/22 22:34:43;;;;;;;17.13;7.82;;;;;;;5.67;92.11;102566.84;12900681;22;20025;-79
2021/03/22 22:39:43;;;;;;;19.58;8.68;;;;;;;5.69;91.37;102551.22;12979368;22;20011;-80
2021/03/22 22:44:44;;;;;;;27.63;10.15;;;;;;;5.57;90.97;102534.72;12976981;22;20350;-79
2021/03/22 22:49:44;;;;;;;22.45;10.23;;;;;;;5.74;90.77;102561.94;12978650;22;20023;-79
2021/03/22 22:54:45;;;;;;;25.23;9.43;;;;;;;5.73;90.38;102554.94;12979401;22;20423;-80
2021/03/22 22:59:45;;;;;;;24.95;10.63;;;;;;;5.81;90.24;102561.56;12977424;22;20035;-79
2021/03/22 23:04:45;;;;;;;19.75;9.48;;;;;;;5.06;89.33;102440.28;12975592;22;20012;-79
2021/03/22 23:09:46;;;;;;;19.48;9.82;;;;;;;5.44;89.53;102491.41;12978303;22;20011;-79
2021/03/22 23:14:47;;;;;;;24.38;11.60;;;;;;;5.63;89.27;102528.22;12951633;22;20048;-79